Amunt
Inicio > meteoXarxa
Fes-te'n soci

METEOXARXA

la Pobla de Benifassà
Ubicació Colònia Europa
Comarca el Baix Maestrat
Altitud (msnm) 0
Posició geogràfica 40° 41' 49.92" N, 00° 9' 54.00" E
Model Instrumentació oficial
Presa de dades
Font de les dades AEMET
Estadístiques. Resum
Data Temperatura (ºC) Humitat (%) Pressió (hPa) Vent (km/h) Precipit. (mm)
Mínima Mitjana Màxima Mínima Mitjana Màxima Mínima Mitjana Màxima Predom. Mitjana Ràfega màxima Total Dies de pluja
Mínima Mitjana Màxima Mínima Mitjana Màxima
Últimes dades diàries
27-03-2017 2,6     5,5     8,4 29,0 14,6  
26-03-2017 2,9     5,8     8,7 30,0 0,0  
25-03-2017 0,2     3,8     7,4 41,0 0,0  
24-03-2017 -0,2     1,3     2,7 49,0 10,0  
23-03-2017 -1,3     3,7     8,7 39,0 0,0  
22-03-2017 3,1     6,3     9,5 41,0 0,0  
21-03-2017 4,1     8,7     13,4 45,0 0,0  
20-03-2017 6,1     10,7     15,3 26,0 0,0  
19-03-2017 7,8     12,7     17,5 35,0 0,0  
18-03-2017 6,0     11,6     17,2 32,0 0,0  
17-03-2017 3,3     8,9     14,5 22,0 0,0  
16-03-2017 2,4     8,0     13,6 30,0 0,0  
15-03-2017 3,4     7,9     12,3 26,0 0,0  
14-03-2017 4,3     8,5     12,7 42,0 0,0  
13-03-2017 -0,1     2,7     5,4 59,0 14,2  
12-03-2017 1,0     7,3     13,5 77,0 3,0  
11-03-2017 12,0     16,4     20,7 28,0 0,0  
10-03-2017 12,5     17,4     22,2 59,0 0,0  
09-03-2017 10,5     16,2     21,9 48,0 0,0  
08-03-2017 6,1     10,8     15,5 103,0 0,0  
07-03-2017 3,5     7,6     11,7 117,0 0,0  
06-03-2017 4,8     9,3     13,8 91,0 0,0  
05-03-2017 0,7     5,5     10,4 52,0 0,0  
03-03-2017 0,1     3,5     6,8 70,0 10,8  
02-03-2017 4,6     9,0     13,3 43,0 0,0  
01-03-2017 1,1     6,1     11,2 64,0 0,0  
28-02-2017 1,4     5,9     10,3 72,0 0,0  
27-02-2017 5,7     9,8     13,8 49,0 0,0  
26-02-2017 2,7     6,7     10,6 17,0 0,0  
25-02-2017 -1,0     4,4     9,9 55,0 0,0  
24-02-2017 0,2     4,5     8,8 63,0 11,8  
23-02-2017 8,1     11,7     15,3 23,0 0,0  
Dades del mes en curs (actualitzades fins l'últim dia disponible)
03/2017 -1,3 3,9 12,5 8,3 2,7 12,6 22,2   117,0 52,6  
Últimes dades mensuals
02/2017 -2,0 2,0 8,1 5,5 2,0 9,1 15,3 118,0 40,8 11
01/2017 -9,4 -0,7 5,3 2,3 -1,7 5,2 14,7 123,0 81,4 13
12/2016 -0,8 2,9 6,3 5,8 2,9 8,6 15,9 71,0 63,8 10
11/2016 -0,7 3,8 10,7 7,1 5,1 10,3 18,9 100,0 81,2 13
10/2016 3,2 9,2 13,1 12,8 9,6 16,5 22,9 60,0 28,2 7
09/2016 6,9 12,1 21,5 16,5 13,4 20,9 31,6 83,0 58,6 7
08/2016 7,3 13,5 17,0 19,0 19,0 24,6 27,6 66,0 8,8 6
07/2016 6,1 14,4 18,5 19,8 20,2 25,2 33,3 75,0 2,2 4
06/2016 5,9 11,1 16,8 16,1 15,0 21,1 27,0 81,0 46,0 7
05/2016 -1,2 6,3 10,9 10,7 8,6 15,2 20,7 92,0 73,0 10
04/2016 -1,3 3,6 8,5 7,6 6,7 11,6 17,2 102,0 67,6 13
03/2016 -2,9 0,7 7,1 4,3 2,3 7,9 15,4 114,0 61,6 10
02/2016 -5,1 1,4 8,4 5,0 1,6 8,7 14,5 107,0 49,6 11
Dades de l'any en curs (actualitzades fins l'últim dia disponible)
2017 -9,4 1,6 12,5 5,2 -1,7 8,7 22,2   123,0 174,8  
Últimes dades anuals
2012 475,0
2013 -7,9 5,9 11,5 9,8 13,0 13,7 27,1 136,0 699,0 123